sensor_id;sensor_type;location;lat;lon;timestamp;pressure;altitude;pressure_sealevel;temperature;humidity
81162;BME280;70638;-33.792;151.032;2023-12-22T00:01:04;101043.67;;;22.68;48.95
81162;BME280;70638;-33.792;151.032;2023-12-22T00:03:33;101036.70;;;22.70;49.35
81162;BME280;70638;-33.792;151.032;2023-12-22T00:06:04;101031.95;;;22.84;50.18
81162;BME280;70638;-33.792;151.032;2023-12-22T00:08:35;101023.83;;;24.19;46.43
81162;BME280;70638;-33.792;151.032;2023-12-22T00:11:05;101014.02;;;25.39;43.61
81162;BME280;70638;-33.792;151.032;2023-12-22T00:13:36;101020.45;;;24.47;45.73
81162;BME280;70638;-33.792;151.032;2023-12-22T00:16:13;101004.77;;;26.22;40.91
81162;BME280;70638;-33.792;151.032;2023-12-22T00:18:37;101007.88;;;24.57;44.27
81162;BME280;70638;-33.792;151.032;2023-12-22T00:21:11;101009.72;;;24.10;45.19
81162;BME280;70638;-33.792;151.032;2023-12-22T00:23:38;101009.00;;;23.75;48.02
81162;BME280;70638;-33.792;151.032;2023-12-22T00:26:10;101012.81;;;23.25;47.71
81162;BME280;70638;-33.792;151.032;2023-12-22T00:28:39;101006.48;;;23.72;47.25
81162;BME280;70638;-33.792;151.032;2023-12-22T00:31:10;100995.30;;;26.15;42.19
81162;BME280;70638;-33.792;151.032;2023-12-22T00:33:41;100978.12;;;29.33;36.41
81162;BME280;70638;-33.792;151.032;2023-12-22T00:36:17;100979.70;;;29.72;33.42
81162;BME280;70638;-33.792;151.032;2023-12-22T00:38:43;100976.59;;;30.10;31.93
81162;BME280;70638;-33.792;151.032;2023-12-22T00:41:13;100968.28;;;30.73;33.03
81162;BME280;70638;-33.792;151.032;2023-12-22T00:43:43;100980.41;;;27.51;36.11
81162;BME280;70638;-33.792;151.032;2023-12-22T00:46:14;100981.16;;;26.13;39.20
81162;BME280;70638;-33.792;151.032;2023-12-22T00:48:45;100979.22;;;25.40;41.70
81162;BME280;70638;-33.792;151.032;2023-12-22T00:51:15;100978.41;;;25.22;42.14
81162;BME280;70638;-33.792;151.032;2023-12-22T00:53:46;100973.74;;;25.02;43.78
81162;BME280;70638;-33.792;151.032;2023-12-22T00:56:17;100981.23;;;24.21;44.64
81162;BME280;70638;-33.792;151.032;2023-12-22T00:58:56;100974.35;;;24.03;47.07
81162;BME280;70638;-33.792;151.032;2023-12-22T01:01:18;100960.66;;;24.53;45.89
81162;BME280;70638;-33.792;151.032;2023-12-22T01:03:48;100950.38;;;25.55;42.53
81162;BME280;70638;-33.792;151.032;2023-12-22T01:06:19;100938.45;;;26.64;40.16
81162;BME280;70638;-33.792;151.032;2023-12-22T01:08:52;100931.38;;;27.50;40.25
81162;BME280;70638;-33.792;151.032;2023-12-22T01:11:20;100935.86;;;25.59;41.62
81162;BME280;70638;-33.792;151.032;2023-12-22T01:13:51;100943.91;;;24.31;45.55
81162;BME280;70638;-33.792;151.032;2023-12-22T01:16:25;100941.24;;;24.01;45.90
81162;BME280;70638;-33.792;151.032;2023-12-22T01:18:52;100939.12;;;23.87;47.19
81162;BME280;70638;-33.792;151.032;2023-12-22T01:21:25;100933.31;;;24.27;48.13
81162;BME280;70638;-33.792;151.032;2023-12-22T01:23:54;100928.80;;;24.40;45.49
81162;BME280;70638;-33.792;151.032;2023-12-22T01:26:24;100929.69;;;24.33;45.48
81162;BME280;70638;-33.792;151.032;2023-12-22T01:28:55;100922.34;;;23.79;45.62
81162;BME280;70638;-33.792;151.032;2023-12-22T01:31:26;100922.36;;;24.03;46.41
81162;BME280;70638;-33.792;151.032;2023-12-22T01:33:56;100914.80;;;24.64;45.42
81162;BME280;70638;-33.792;151.032;2023-12-22T01:36:27;100906.27;;;24.81;45.33
81162;BME280;70638;-33.792;151.032;2023-12-22T01:38:58;100906.15;;;24.85;45.12
81162;BME280;70638;-33.792;151.032;2023-12-22T01:41:28;100908.19;;;24.58;43.73
81162;BME280;70638;-33.792;151.032;2023-12-22T01:44:13;100898.98;;;24.58;45.76
81162;BME280;70638;-33.792;151.032;2023-12-22T01:46:29;100896.58;;;24.83;47.05
81162;BME280;70638;-33.792;151.032;2023-12-22T01:49:00;100894.39;;;24.59;45.14
81162;BME280;70638;-33.792;151.032;2023-12-22T01:51:32;100891.91;;;24.17;45.74
81162;BME280;70638;-33.792;151.032;2023-12-22T01:54:01;100887.20;;;24.19;46.55
81162;BME280;70638;-33.792;151.032;2023-12-22T01:56:33;100888.95;;;24.21;46.77
81162;BME280;70638;-33.792;151.032;2023-12-22T01:59:03;100886.08;;;24.11;48.36
81162;BME280;70638;-33.792;151.032;2023-12-22T02:01:33;100873.56;;;24.07;46.10
81162;BME280;70638;-33.792;151.032;2023-12-22T02:04:05;100869.91;;;24.05;48.47
81162;BME280;70638;-33.792;151.032;2023-12-22T02:06:35;100867.41;;;23.93;46.47
81162;BME280;70638;-33.792;151.032;2023-12-22T02:09:07;100866.23;;;23.83;47.35
81162;BME280;70638;-33.792;151.032;2023-12-22T02:11:37;100856.87;;;23.80;46.48
81162;BME280;70638;-33.792;151.032;2023-12-22T02:14:08;100855.70;;;23.76;47.03
81162;BME280;70638;-33.792;151.032;2023-12-22T02:16:42;100856.97;;;23.66;46.29
81162;BME280;70638;-33.792;151.032;2023-12-22T02:19:34;100848.94;;;24.05;47.33
81162;BME280;70638;-33.792;151.032;2023-12-22T02:22:03;100849.01;;;23.53;46.58
81162;BME280;70638;-33.792;151.032;2023-12-22T02:24:15;100851.98;;;23.30;47.68
81162;BME280;70638;-33.792;151.032;2023-12-22T02:26:44;100841.50;;;23.44;48.49
81162;BME280;70638;-33.792;151.032;2023-12-22T02:29:13;100840.41;;;23.43;47.63
81162;BME280;70638;-33.792;151.032;2023-12-22T02:31:49;100823.22;;;23.38;47.39
81162;BME280;70638;-33.792;151.032;2023-12-22T02:34:16;100830.12;;;23.43;48.60
81162;BME280;70638;-33.792;151.032;2023-12-22T02:36:43;100822.95;;;23.74;48.58
81162;BME280;70638;-33.792;151.032;2023-12-22T02:39:15;100826.51;;;23.65;46.09
81162;BME280;70638;-33.792;151.032;2023-12-22T02:41:45;100824.47;;;23.45;48.99
81162;BME280;70638;-33.792;151.032;2023-12-22T02:44:19;100820.59;;;23.49;48.84
81162;BME280;70638;-33.792;151.032;2023-12-22T02:46:47;100815.69;;;23.65;49.09
81162;BME280;70638;-33.792;151.032;2023-12-22T02:49:16;100812.66;;;23.74;46.65
81162;BME280;70638;-33.792;151.032;2023-12-22T02:51:45;100818.98;;;23.48;45.72
81162;BME280;70638;-33.792;151.032;2023-12-22T02:54:16;100817.16;;;23.16;47.50
81162;BME280;70638;-33.792;151.032;2023-12-22T02:56:50;100819.23;;;23.26;47.65
81162;BME280;70638;-33.792;151.032;2023-12-22T02:59:16;100815.20;;;23.45;46.08
81162;BME280;70638;-33.792;151.032;2023-12-22T03:01:47;100803.23;;;23.37;46.17
81162;BME280;70638;-33.792;151.032;2023-12-22T03:04:19;100806.55;;;23.41;46.61
81162;BME280;70638;-33.792;151.032;2023-12-22T03:06:52;100808.93;;;23.40;45.50
81162;BME280;70638;-33.792;151.032;2023-12-22T03:09:19;100813.29;;;23.56;42.92
81162;BME280;70638;-33.792;151.032;2023-12-22T03:11:50;100811.09;;;23.19;43.61
81162;BME280;70638;-33.792;151.032;2023-12-22T03:14:20;100809.90;;;23.25;46.81
81162;BME280;70638;-33.792;151.032;2023-12-22T03:16:51;100804.35;;;23.44;43.65
81162;BME280;70638;-33.792;151.032;2023-12-22T03:19:22;100799.55;;;23.21;44.66
81162;BME280;70638;-33.792;151.032;2023-12-22T03:21:53;100796.39;;;23.07;46.73
81162;BME280;70638;-33.792;151.032;2023-12-22T03:24:25;100797.13;;;23.08;44.20
81162;BME280;70638;-33.792;151.032;2023-12-22T03:26:54;100795.11;;;23.30;46.06
81162;BME280;70638;-33.792;151.032;2023-12-22T03:29:26;100791.25;;;23.61;46.58
81162;BME280;70638;-33.792;151.032;2023-12-22T03:31:56;100789.73;;;23.26;44.39
81162;BME280;70638;-33.792;151.032;2023-12-22T03:34:27;100803.46;;;23.09;45.34
81162;BME280;70638;-33.792;151.032;2023-12-22T03:36:58;100816.83;;;23.06;45.61
81162;BME280;70638;-33.792;151.032;2023-12-22T03:39:28;100797.95;;;22.74;46.42
81162;BME280;70638;-33.792;151.032;2023-12-22T03:41:58;100796.28;;;22.93;46.73
81162;BME280;70638;-33.792;151.032;2023-12-22T03:44:28;100795.52;;;23.14;48.92
81162;BME280;70638;-33.792;151.032;2023-12-22T03:46:59;100784.32;;;23.10;47.13
81162;BME280;70638;-33.792;151.032;2023-12-22T03:49:38;100790.39;;;23.30;46.46
81162;BME280;70638;-33.792;151.032;2023-12-22T03:52:00;100788.66;;;23.08;48.02
81162;BME280;70638;-33.792;151.032;2023-12-22T03:54:31;100796.47;;;23.21;46.92
81162;BME280;70638;-33.792;151.032;2023-12-22T03:57:02;100798.39;;;23.22;46.50
81162;BME280;70638;-33.792;151.032;2023-12-22T03:59:33;100786.64;;;23.42;45.84
81162;BME280;70638;-33.792;151.032;2023-12-22T04:02:04;100787.72;;;23.00;44.88
81162;BME280;70638;-33.792;151.032;2023-12-22T04:04:37;100783.66;;;23.12;45.81
81162;BME280;70638;-33.792;151.032;2023-12-22T04:07:05;100787.25;;;23.29;46.13
81162;BME280;70638;-33.792;151.032;2023-12-22T04:09:37;100792.73;;;23.16;45.09
81162;BME280;70638;-33.792;151.032;2023-12-22T04:12:13;100790.86;;;23.01;45.26
81162;BME280;70638;-33.792;151.032;2023-12-22T04:14:37;100781.42;;;23.22;45.45
81162;BME280;70638;-33.792;151.032;2023-12-22T04:17:08;100786.91;;;23.25;46.10
81162;BME280;70638;-33.792;151.032;2023-12-22T04:19:39;100779.92;;;23.20;48.01
81162;BME280;70638;-33.792;151.032;2023-12-22T04:22:09;100769.60;;;23.46;46.88
81162;BME280;70638;-33.792;151.032;2023-12-22T04:24:40;100778.09;;;23.47;44.67
81162;BME280;70638;-33.792;151.032;2023-12-22T04:27:11;100786.39;;;23.39;45.95
81162;BME280;70638;-33.792;151.032;2023-12-22T04:29:41;100785.00;;;23.03;44.99
81162;BME280;70638;-33.792;151.032;2023-12-22T04:32:21;100774.67;;;22.82;47.50
81162;BME280;70638;-33.792;151.032;2023-12-22T04:34:43;100773.28;;;22.79;46.04
81162;BME280;70638;-33.792;151.032;2023-12-22T04:37:14;100770.56;;;22.65;47.31
81162;BME280;70638;-33.792;151.032;2023-12-22T04:39:44;100781.73;;;22.64;47.22
81162;BME280;70638;-33.792;151.032;2023-12-22T04:42:15;100778.69;;;22.93;46.48
81162;BME280;70638;-33.792;151.032;2023-12-22T04:44:46;100778.27;;;23.14;46.58
81162;BME280;70638;-33.792;151.032;2023-12-22T04:47:16;100770.67;;;23.36;46.21
81162;BME280;70638;-33.792;151.032;2023-12-22T04:49:47;100762.72;;;23.44;47.80
81162;BME280;70638;-33.792;151.032;2023-12-22T04:52:18;100764.51;;;23.23;46.06
81162;BME280;70638;-33.792;151.032;2023-12-22T04:54:50;100777.00;;;23.17;47.19
81162;BME280;70638;-33.792;151.032;2023-12-22T04:57:18;100777.02;;;22.82;48.58
81162;BME280;70638;-33.792;151.032;2023-12-22T04:59:49;100769.95;;;22.98;47.73
81162;BME280;70638;-33.792;151.032;2023-12-22T05:02:19;100754.38;;;23.19;48.53
81162;BME280;70638;-33.792;151.032;2023-12-22T05:04:50;100764.32;;;23.06;47.70
81162;BME280;70638;-33.792;151.032;2023-12-22T05:07:21;100772.95;;;22.80;48.47
81162;BME280;70638;-33.792;151.032;2023-12-22T05:09:51;100771.18;;;22.74;49.42
81162;BME280;70638;-33.792;151.032;2023-12-22T05:12:22;100767.50;;;22.54;48.75
81162;BME280;70638;-33.792;151.032;2023-12-22T05:14:52;100774.19;;;22.88;49.51
81162;BME280;70638;-33.792;151.032;2023-12-22T05:17:29;100764.11;;;22.87;49.25
81162;BME280;70638;-33.792;151.032;2023-12-22T05:19:53;100753.91;;;22.52;50.27
81162;BME280;70638;-33.792;151.032;2023-12-22T05:22:24;100756.50;;;22.72;50.65
81162;BME280;70638;-33.792;151.032;2023-12-22T05:24:54;100756.84;;;22.68;51.66
81162;BME280;70638;-33.792;151.032;2023-12-22T05:27:26;100761.48;;;22.83;51.89
81162;BME280;70638;-33.792;151.032;2023-12-22T05:29:55;100766.17;;;22.73;51.98
81162;BME280;70638;-33.792;151.032;2023-12-22T05:32:26;100756.38;;;22.49;53.24
81162;BME280;70638;-33.792;151.032;2023-12-22T05:34:56;100758.78;;;22.63;53.19
81162;BME280;70638;-33.792;151.032;2023-12-22T05:37:32;100756.20;;;22.60;52.45
81162;BME280;70638;-33.792;151.032;2023-12-22T05:39:57;100746.88;;;22.81;53.00
81162;BME280;70638;-33.792;151.032;2023-12-22T05:42:28;100738.91;;;23.04;52.97
81162;BME280;70638;-33.792;151.032;2023-12-22T05:44:58;100750.17;;;22.78;50.11
81162;BME280;70638;-33.792;151.032;2023-12-22T05:47:29;100735.05;;;22.45;51.07
81162;BME280;70638;-33.792;151.032;2023-12-22T05:49:59;100733.53;;;22.55;51.98
81162;BME280;70638;-33.792;151.032;2023-12-22T05:52:30;100738.43;;;22.75;49.93
81162;BME280;70638;-33.792;151.032;2023-12-22T05:55:01;100743.46;;;22.66;48.80
81162;BME280;70638;-33.792;151.032;2023-12-22T05:57:31;100744.84;;;22.48;49.57
81162;BME280;70638;-33.792;151.032;2023-12-22T06:00:13;100737.95;;;22.56;49.70
81162;BME280;70638;-33.792;151.032;2023-12-22T06:02:33;100733.94;;;22.90;49.54
81162;BME280;70638;-33.792;151.032;2023-12-22T06:05:06;100737.81;;;22.73;48.64
81162;BME280;70638;-33.792;151.032;2023-12-22T06:07:35;100732.13;;;22.94;48.74
81162;BME280;70638;-33.792;151.032;2023-12-22T06:10:06;100733.61;;;22.97;48.50
81162;BME280;70638;-33.792;151.032;2023-12-22T06:12:35;100742.67;;;22.84;50.35
81162;BME280;70638;-33.792;151.032;2023-12-22T06:15:07;100740.25;;;22.67;49.08
81162;BME280;70638;-33.792;151.032;2023-12-22T06:17:36;100738.27;;;22.72;50.02
81162;BME280;70638;-33.792;151.032;2023-12-22T06:20:12;100740.22;;;22.86;49.16
81162;BME280;70638;-33.792;151.032;2023-12-22T06:22:37;100737.06;;;22.72;49.51
81162;BME280;70638;-33.792;151.032;2023-12-22T06:25:10;100747.17;;;22.68;49.60
81162;BME280;70638;-33.792;151.032;2023-12-22T06:27:39;100744.45;;;22.64;51.12
81162;BME280;70638;-33.792;151.032;2023-12-22T06:30:09;100735.48;;;22.70;51.31
81162;BME280;70638;-33.792;151.032;2023-12-22T06:32:43;100740.05;;;22.76;50.16
81162;BME280;70638;-33.792;151.032;2023-12-22T06:35:08;100736.76;;;22.81;50.31
81162;BME280;70638;-33.792;151.032;2023-12-22T06:37:39;100746.59;;;22.60;49.31
81162;BME280;70638;-33.792;151.032;2023-12-22T06:40:10;100738.38;;;22.42;50.10
81162;BME280;70638;-33.792;151.032;2023-12-22T06:42:43;100748.95;;;22.48;49.97
81162;BME280;70638;-33.792;151.032;2023-12-22T06:45:12;100745.66;;;22.32;51.45
81162;BME280;70638;-33.792;151.032;2023-12-22T06:47:42;100739.44;;;22.38;51.65
81162;BME280;70638;-33.792;151.032;2023-12-22T06:50:11;100739.23;;;22.45;51.41
81162;BME280;70638;-33.792;151.032;2023-12-22T06:52:42;100735.36;;;22.31;51.62
81162;BME280;70638;-33.792;151.032;2023-12-22T06:55:12;100727.69;;;22.41;51.37
81162;BME280;70638;-33.792;151.032;2023-12-22T06:57:43;100736.48;;;22.54;51.06
81162;BME280;70638;-33.792;151.032;2023-12-22T07:00:14;100733.57;;;22.54;51.62
81162;BME280;70638;-33.792;151.032;2023-12-22T07:02:44;100738.97;;;22.63;52.12
81162;BME280;70638;-33.792;151.032;2023-12-22T07:05:30;100742.43;;;22.49;51.46
81162;BME280;70638;-33.792;151.032;2023-12-22T07:07:45;100737.78;;;22.31;52.72
81162;BME280;70638;-33.792;151.032;2023-12-22T07:10:16;100744.90;;;22.26;52.06
81162;BME280;70638;-33.792;151.032;2023-12-22T07:12:47;100743.59;;;22.25;52.04
81162;BME280;70638;-33.792;151.032;2023-12-22T07:15:18;100727.52;;;22.10;52.46
81162;BME280;70638;-33.792;151.032;2023-12-22T07:17:48;100733.61;;;22.02;52.83
81162;BME280;70638;-33.792;151.032;2023-12-22T07:20:19;100740.95;;;21.99;53.70
81162;BME280;70638;-33.792;151.032;2023-12-22T07:22:50;100732.84;;;21.94;54.23
81162;BME280;70638;-33.792;151.032;2023-12-22T07:25:26;100745.41;;;21.95;54.10
81162;BME280;70638;-33.792;151.032;2023-12-22T07:27:50;100753.01;;;21.84;53.58
81162;BME280;70638;-33.792;151.032;2023-12-22T07:30:21;100743.89;;;21.90;54.41
81162;BME280;70638;-33.792;151.032;2023-12-22T07:32:55;100740.05;;;21.85;53.90
81162;BME280;70638;-33.792;151.032;2023-12-22T07:35:22;100749.80;;;21.64;54.11
81162;BME280;70638;-33.792;151.032;2023-12-22T07:37:53;100744.08;;;21.51;54.38
81162;BME280;70638;-33.792;151.032;2023-12-22T07:40:24;100749.73;;;21.52;54.78
81162;BME280;70638;-33.792;151.032;2023-12-22T07:42:55;100747.08;;;21.61;54.73
81162;BME280;70638;-33.792;151.032;2023-12-22T07:45:25;100747.09;;;21.59;54.74
81162;BME280;70638;-33.792;151.032;2023-12-22T07:47:56;100754.85;;;21.61;55.23
81162;BME280;70638;-33.792;151.032;2023-12-22T07:50:27;100760.20;;;21.54;55.26
81162;BME280;70638;-33.792;151.032;2023-12-22T07:52:57;100763.47;;;21.50;55.53
81162;BME280;70638;-33.792;151.032;2023-12-22T07:55:28;100765.86;;;21.34;55.74
81162;BME280;70638;-33.792;151.032;2023-12-22T07:57:59;100766.42;;;21.26;55.83
81162;BME280;70638;-33.792;151.032;2023-12-22T08:00:30;100774.08;;;21.29;56.39
81162;BME280;70638;-33.792;151.032;2023-12-22T08:03:01;100772.31;;;21.22;57.12
81162;BME280;70638;-33.792;151.032;2023-12-22T08:05:32;100777.20;;;21.22;57.41
81162;BME280;70638;-33.792;151.032;2023-12-22T08:08:08;100776.30;;;21.20;56.97
81162;BME280;70638;-33.792;151.032;2023-12-22T08:10:33;100797.44;;;21.08;57.00
81162;BME280;70638;-33.792;151.032;2023-12-22T08:13:03;100804.55;;;21.03;57.95
81162;BME280;70638;-33.792;151.032;2023-12-22T08:15:35;100807.38;;;20.93;58.88
81162;BME280;70638;-33.792;151.032;2023-12-22T08:18:06;100809.11;;;20.74;59.01
81162;BME280;70638;-33.792;151.032;2023-12-22T08:20:35;100814.71;;;20.60;60.07
81162;BME280;70638;-33.792;151.032;2023-12-22T08:23:05;100809.77;;;20.46;60.77
81162;BME280;70638;-33.792;151.032;2023-12-22T08:25:36;100817.73;;;20.44;59.67
81162;BME280;70638;-33.792;151.032;2023-12-22T08:28:10;100828.66;;;20.44;59.61
81162;BME280;70638;-33.792;151.032;2023-12-22T08:30:36;100831.59;;;20.43;60.12
81162;BME280;70638;-33.792;151.032;2023-12-22T08:33:07;100837.95;;;20.39;60.61
81162;BME280;70638;-33.792;151.032;2023-12-22T08:35:38;100840.09;;;20.40;60.44
81162;BME280;70638;-33.792;151.032;2023-12-22T08:38:09;100844.21;;;20.32;60.88
81162;BME280;70638;-33.792;151.032;2023-12-22T08:40:39;100850.52;;;20.27;60.99
81162;BME280;70638;-33.792;151.032;2023-12-22T08:43:09;100855.03;;;20.27;61.43
81162;BME280;70638;-33.792;151.032;2023-12-22T08:45:39;100852.13;;;20.27;61.66
81162;BME280;70638;-33.792;151.032;2023-12-22T08:48:10;100855.76;;;20.18;62.58
81162;BME280;70638;-33.792;151.032;2023-12-22T08:50:41;100865.59;;;20.16;63.14
81162;BME280;70638;-33.792;151.032;2023-12-22T08:53:11;100865.38;;;20.19;63.95
81162;BME280;70638;-33.792;151.032;2023-12-22T08:55:41;100867.64;;;20.15;64.68
81162;BME280;70638;-33.792;151.032;2023-12-22T08:58:12;100865.05;;;20.05;65.33
81162;BME280;70638;-33.792;151.032;2023-12-22T09:00:43;100869.56;;;20.04;65.13
81162;BME280;70638;-33.792;151.032;2023-12-22T09:03:13;100872.37;;;19.98;65.43
81162;BME280;70638;-33.792;151.032;2023-12-22T09:05:44;100872.33;;;19.86;66.21
81162;BME280;70638;-33.792;151.032;2023-12-22T09:08:15;100871.78;;;19.80;65.45
81162;BME280;70638;-33.792;151.032;2023-12-22T09:10:46;100878.47;;;19.69;66.00
81162;BME280;70638;-33.792;151.032;2023-12-22T09:13:16;100876.41;;;19.78;64.62
81162;BME280;70638;-33.792;151.032;2023-12-22T09:15:51;100879.18;;;19.65;65.67
81162;BME280;70638;-33.792;151.032;2023-12-22T09:18:17;100887.69;;;19.59;66.16
81162;BME280;70638;-33.792;151.032;2023-12-22T09:20:48;100887.12;;;19.55;66.45
81162;BME280;70638;-33.792;151.032;2023-12-22T09:23:19;100884.97;;;19.47;67.36
81162;BME280;70638;-33.792;151.032;2023-12-22T09:25:50;100882.00;;;19.47;67.37
81162;BME280;70638;-33.792;151.032;2023-12-22T09:28:20;100884.55;;;19.47;67.72
81162;BME280;70638;-33.792;151.032;2023-12-22T09:30:50;100882.48;;;19.48;67.60
81162;BME280;70638;-33.792;151.032;2023-12-22T09:33:25;100882.84;;;19.39;68.27
81162;BME280;70638;-33.792;151.032;2023-12-22T09:35:50;100879.23;;;19.30;69.23
81162;BME280;70638;-33.792;151.032;2023-12-22T09:38:21;100882.92;;;19.28;69.68
81162;BME280;70638;-33.792;151.032;2023-12-22T09:40:51;100881.31;;;19.26;69.55
81162;BME280;70638;-33.792;151.032;2023-12-22T09:43:22;100880.41;;;19.25;70.16
81162;BME280;70638;-33.792;151.032;2023-12-22T09:45:53;100885.72;;;19.18;70.54
81162;BME280;70638;-33.792;151.032;2023-12-22T09:48:30;100887.33;;;19.08;71.05
81162;BME280;70638;-33.792;151.032;2023-12-22T09:50:53;100885.61;;;19.12;70.67
81162;BME280;70638;-33.792;151.032;2023-12-22T09:53:28;100889.67;;;19.04;71.02
81162;BME280;70638;-33.792;151.032;2023-12-22T09:55:54;100894.36;;;19.06;71.68
81162;BME280;70638;-33.792;151.032;2023-12-22T09:58:24;100893.77;;;19.13;70.90
81162;BME280;70638;-33.792;151.032;2023-12-22T10:00:56;100892.80;;;19.18;70.69
81162;BME280;70638;-33.792;151.032;2023-12-22T10:03:26;100895.66;;;19.22;70.69
81162;BME280;70638;-33.792;151.032;2023-12-22T10:05:56;100895.65;;;19.26;71.05
81162;BME280;70638;-33.792;151.032;2023-12-22T10:08:27;100896.24;;;19.27;70.87
81162;BME280;70638;-33.792;151.032;2023-12-22T10:10:57;100886.81;;;19.21;71.16
81162;BME280;70638;-33.792;151.032;2023-12-22T10:13:36;100891.64;;;19.24;71.59
81162;BME280;70638;-33.792;151.032;2023-12-22T10:15:57;100896.22;;;19.18;71.90
81162;BME280;70638;-33.792;151.032;2023-12-22T10:18:27;100900.11;;;19.21;71.46
81162;BME280;70638;-33.792;151.032;2023-12-22T10:20:57;100901.44;;;19.28;71.40
81162;BME280;70638;-33.792;151.032;2023-12-22T10:23:28;100906.91;;;19.25;71.20
81162;BME280;70638;-33.792;151.032;2023-12-22T10:26:00;100908.88;;;19.25;72.19
81162;BME280;70638;-33.792;151.032;2023-12-22T10:28:30;100911.03;;;19.29;71.39
81162;BME280;70638;-33.792;151.032;2023-12-22T10:31:09;100913.59;;;19.31;71.30
81162;BME280;70638;-33.792;151.032;2023-12-22T10:33:31;100919.07;;;19.28;72.01
81162;BME280;70638;-33.792;151.032;2023-12-22T10:36:01;100922.51;;;19.25;71.79
81162;BME280;70638;-33.792;151.032;2023-12-22T10:38:35;100924.59;;;19.18;72.35
81162;BME280;70638;-33.792;151.032;2023-12-22T10:41:03;100926.89;;;19.09;72.97
81162;BME280;70638;-33.792;151.032;2023-12-22T10:43:40;100934.56;;;19.05;73.07
81162;BME280;70638;-33.792;151.032;2023-12-22T10:46:04;100931.64;;;19.01;73.51
81162;BME280;70638;-33.792;151.032;2023-12-22T10:48:34;100927.23;;;18.98;73.93
81162;BME280;70638;-33.792;151.032;2023-12-22T10:51:09;100933.31;;;18.91;74.21
81162;BME280;70638;-33.792;151.032;2023-12-22T10:53:35;100932.41;;;18.86;74.83
81162;BME280;70638;-33.792;151.032;2023-12-22T10:56:06;100934.50;;;18.93;74.78
81162;BME280;70638;-33.792;151.032;2023-12-22T10:58:35;100931.77;;;19.05;74.24
81162;BME280;70638;-33.792;151.032;2023-12-22T11:01:06;100933.74;;;19.04;74.34
81162;BME280;70638;-33.792;151.032;2023-12-22T11:03:39;100934.70;;;19.11;74.80
81162;BME280;70638;-33.792;151.032;2023-12-22T11:06:07;100932.75;;;19.12;74.78
81162;BME280;70638;-33.792;151.032;2023-12-22T11:08:38;100929.42;;;19.11;75.04
81162;BME280;70638;-33.792;151.032;2023-12-22T11:11:20;100921.51;;;19.10;75.17
81162;BME280;70638;-33.792;151.032;2023-12-22T11:13:38;100920.37;;;19.04;75.82
81162;BME280;70638;-33.792;151.032;2023-12-22T11:16:14;100920.53;;;18.91;76.73
81162;BME280;70638;-33.792;151.032;2023-12-22T11:18:38;100924.37;;;18.89;76.51
81162;BME280;70638;-33.792;151.032;2023-12-22T11:21:10;100927.86;;;18.93;76.66
81162;BME280;70638;-33.792;151.032;2023-12-22T11:23:41;100927.94;;;18.91;76.97
81162;BME280;70638;-33.792;151.032;2023-12-22T11:26:11;100923.58;;;18.92;77.00
81162;BME280;70638;-33.792;151.032;2023-12-22T11:28:42;100926.34;;;18.86;77.65
81162;BME280;70638;-33.792;151.032;2023-12-22T11:31:12;100920.15;;;18.81;77.81
81162;BME280;70638;-33.792;151.032;2023-12-22T11:33:45;100920.23;;;18.81;78.78
81162;BME280;70638;-33.792;151.032;2023-12-22T11:36:18;100918.56;;;18.89;77.86
81162;BME280;70638;-33.792;151.032;2023-12-22T11:38:43;100921.13;;;18.90;77.85
81162;BME280;70638;-33.792;151.032;2023-12-22T11:41:29;100922.78;;;18.83;78.05
81162;BME280;70638;-33.792;151.032;2023-12-22T11:43:45;100923.62;;;18.86;78.24
81162;BME280;70638;-33.792;151.032;2023-12-22T11:46:18;100925.22;;;18.89;78.11
81162;BME280;70638;-33.792;151.032;2023-12-22T11:48:49;100926.73;;;18.91;77.85
81162;BME280;70638;-33.792;151.032;2023-12-22T11:51:17;100927.46;;;18.87;78.51
81162;BME280;70638;-33.792;151.032;2023-12-22T11:53:47;100925.09;;;18.96;77.64
81162;BME280;70638;-33.792;151.032;2023-12-22T11:56:24;100920.29;;;19.00;77.62
81162;BME280;70638;-33.792;151.032;2023-12-22T11:59:02;100919.02;;;18.99;78.22
81162;BME280;70638;-33.792;151.032;2023-12-22T12:01:18;100919.19;;;18.88;78.28
81162;BME280;70638;-33.792;151.032;2023-12-22T12:03:57;100916.88;;;18.86;78.80
81162;BME280;70638;-33.792;151.032;2023-12-22T12:08:48;100912.16;;;18.92;78.54
81162;BME280;70638;-33.792;151.032;2023-12-22T12:11:18;100912.11;;;18.88;78.36
81162;BME280;70638;-33.792;151.032;2023-12-22T12:13:50;100908.33;;;18.93;78.33
81162;BME280;70638;-33.792;151.032;2023-12-22T12:16:26;100906.98;;;19.02;78.18
81162;BME280;70638;-33.792;151.032;2023-12-22T12:18:50;100897.88;;;19.03;78.37
81162;BME280;70638;-33.792;151.032;2023-12-22T12:21:20;100899.81;;;19.03;77.87
81162;BME280;70638;-33.792;151.032;2023-12-22T12:23:51;100893.80;;;19.01;78.27
81162;BME280;70638;-33.792;151.032;2023-12-22T12:26:24;100889.41;;;19.04;78.09
81162;BME280;70638;-33.792;151.032;2023-12-22T12:28:51;100890.67;;;19.09;78.09
81162;BME280;70638;-33.792;151.032;2023-12-22T12:31:35;100888.80;;;19.09;77.57
81162;BME280;70638;-33.792;151.032;2023-12-22T12:33:52;100894.73;;;19.12;77.97
81162;BME280;70638;-33.792;151.032;2023-12-22T12:36:29;100890.06;;;19.08;77.57
81162;BME280;70638;-33.792;151.032;2023-12-22T12:39:01;100891.52;;;19.09;77.53